Accueil
METAR-TAF:

METAR-TAF

Aéroports :

Aéroport de Moss-Rygge

Rygge, Norvège

latitude: 59-23N, longitude: 010-47E, altitude: 5 m

Observation

Le bulletin a été fait il y a 19 minutes, à 21:20 UTC
Vent 12 kt de ouest/nord-ouest
Température 15°C
Humidité 41%
Pression 1014 hPa
Visibilité 10 km ou plus

METAR: ENRY 112120Z AUTO 30012KT 9999NDV NCD 15/02 Q1014

Heure: 23:39 (21:39 UTC)

Prévision

Le bulletin a été fait il y a 3 heures et 30 minutes, à 18:09 UTC
Prévision valable du 11 à 18 UTC au 12 à 18 UTC
Vent 8 kt de nord-ouest
Visibilité 10 km ou plus
Quelques nuages à une hauteur de 4000 ft
Nuages épars à une hauteur de 8000 ft

TAF: ENRY 111809Z 1118/1218 32008KT 9999 FEW040 SCT080

Observations et prévisions météorologiques de plus de 4000 aéroports (messages METAR et TAF).

Les stations disponibles sont représentées par des disques jaunes et rouges sur la carte.

Passer la souris dessus pour voir le nom de la station.

Cliquer dessus pour voir les observations et prévisions météorologiques.

Pour changer de carte: cliquez sur les boutons verts avec une croix noire pour zoomer, sur le bouton vert avec un tiret pour effectuer un zoom arrière, ou sur les flèches vertes pour les cartes adjacentes.


METAR-TAF: